Time;durP1;ratioP1;P1;durP2;ratioP2;P2;SDS_P1;SDS_P2;PMS_P1;PMS_P2;Temp;Humidity;BMP_temperature;BMP_pressure;BME280_temperature;BME280_humidity;BME280_pressure;Samples;Min_cycle;Max_cycle;Signal;HPM_P1;HPM_P2
2022/08/26 00:00:58;;;;;;;22.95;9.38;;;;;;;;;;6165050;28;20394;-86
2022/08/26 00:03:59;;;;;;;16.10;8.77;;;;;;;;;;6166190;28;20050;-86
2022/08/26 00:07:00;;;;;;;13.52;7.40;;;;;;;;;;6146425;28;20010;-86
2022/08/26 00:10:00;;;;;;;18.40;8.63;;;;;;;;;;6170507;28;20018;-86
2022/08/26 00:13:00;;;;;;;19.07;9.17;;;;;;;;;;6170338;28;20050;-86
2022/08/26 00:16:01;;;;;;;20.07;8.93;;;;;;;;;;6153024;28;20102;-86
2022/08/26 00:19:01;;;;;;;19.38;9.73;;;;;;;;;;6142502;28;20538;-86
2022/08/26 00:22:02;;;;;;;16.10;8.03;;;;;;;;;;6156991;28;20023;-86
2022/08/26 00:25:03;;;;;;;15.53;8.20;;;;;;;;;;6160934;28;20018;-86
2022/08/26 00:28:04;;;;;;;17.83;8.57;;;;;;;;;;6162755;28;20496;-86
2022/08/26 00:31:05;;;;;;;21.88;8.55;;;;;;;;;;6165318;28;20027;-86
2022/08/26 00:34:05;;;;;;;18.37;9.33;;;;;;;;;;6146694;28;20085;-86
2022/08/26 00:37:05;;;;;;;26.23;8.60;;;;;;;;;;6161455;28;20074;-86
2022/08/26 00:40:07;;;;;;;12.97;7.10;;;;;;;;;;6170339;28;20023;-86
2022/08/26 00:43:07;;;;;;;16.52;8.98;;;;;;;;;;6149289;28;20045;-86
2022/08/26 00:46:11;;;;;;;13.47;7.73;;;;;;;;;;6154844;28;20030;-86
2022/08/26 00:49:14;;;;;;;16.92;7.57;;;;;;;;;;6159102;28;20011;-86
2022/08/26 00:52:16;;;;;;;16.73;8.93;;;;;;;;;;6167963;28;20023;-86
2022/08/26 00:55:16;;;;;;;;;;;;;;;;;;6153493;28;20081;-86
2022/08/26 00:58:17;;;;;;;13.68;8.20;;;;;;;;;;6162304;28;19914;-86
2022/08/26 01:01:17;;;;;;;15.57;7.53;;;;;;;;;;6152773;28;20043;-86
2022/08/26 01:04:19;;;;;;;19.77;8.83;;;;;;;;;;6145925;28;20069;-86
2022/08/26 01:07:20;;;;;;;19.63;8.63;;;;;;;;;;6154808;28;20015;-86
2022/08/26 01:10:23;;;;;;;15.73;8.87;;;;;;;;;;6169414;28;20053;-86
2022/08/26 01:13:23;;;;;;;16.15;8.60;;;;;;;;;;6167132;28;20027;-86
2022/08/26 01:16:24;;;;;;;20.97;8.77;;;;;;;;;;6170229;28;20027;-86
2022/08/26 01:19:27;;;;;;;18.80;7.80;;;;;;;;;;6155987;28;20085;-86
2022/08/26 01:22:39;;;;;;;18.98;8.50;;;;;;;;;;6156018;28;20022;-86
2022/08/26 01:25:42;;;;;;;13.70;8.48;;;;;;;;;;6173607;28;20470;-86
2022/08/26 01:28:43;;;;;;;15.35;8.18;;;;;;;;;;6168144;28;20015;-86
2022/08/26 01:31:45;;;;;;;19.63;7.67;;;;;;;;;;6148024;28;20206;-86
2022/08/26 01:34:45;;;;;;;19.45;9.00;;;;;;;;;;6165716;28;20031;-86
2022/08/26 01:37:46;;;;;;;14.83;8.40;;;;;;;;;;6158686;28;20710;-85
2022/08/26 01:40:48;;;;;;;14.02;7.82;;;;;;;;;;6148120;28;20109;-86
2022/08/26 01:43:51;;;;;;;22.00;8.77;;;;;;;;;;6166587;28;20047;-86
2022/08/26 01:46:52;;;;;;;16.80;8.50;;;;;;;;;;6173705;28;20026;-86
2022/08/26 01:49:54;;;;;;;16.25;9.02;;;;;;;;;;6155876;28;20019;-86
2022/08/26 01:52:54;;;;;;;;;;;;;;;;;;6170806;28;20053;-86
2022/08/26 01:55:57;;;;;;;15.37;9.17;;;;;;;;;;6154544;28;19910;-86
2022/08/26 01:58:59;;;;;;;15.27;9.27;;;;;;;;;;6154188;28;20022;-86
2022/08/26 02:02:00;;;;;;;11.93;7.22;;;;;;;;;;6155580;28;20019;-86
2022/08/26 02:05:01;;;;;;;15.40;7.97;;;;;;;;;;6171570;28;20015;-86
2022/08/26 02:08:03;;;;;;;15.75;8.40;;;;;;;;;;6167398;28;20019;-86
2022/08/26 02:11:03;;;;;;;21.08;9.52;;;;;;;;;;6166236;28;20094;-86
2022/08/26 02:14:33;;;;;;;16.00;8.00;;;;;;;;;;6154818;28;20014;-86
2022/08/26 02:17:36;;;;;;;15.68;8.30;;;;;;;;;;6151380;28;20058;-86
2022/08/26 02:20:36;;;;;;;14.65;8.73;;;;;;;;;;6172621;28;20043;-86
2022/08/26 02:23:37;;;;;;;23.73;8.17;;;;;;;;;;6172332;28;20045;-86
2022/08/26 02:26:37;;;;;;;19.57;9.60;;;;;;;;;;6152642;28;20025;-86
2022/08/26 02:29:41;;;;;;;13.73;8.47;;;;;;;;;;6155308;28;20380;-86
2022/08/26 02:32:41;;;;;;;24.27;9.10;;;;;;;;;;6171218;28;20022;-86
2022/08/26 02:35:42;;;;;;;12.80;7.20;;;;;;;;;;6168493;28;20479;-86
2022/08/26 02:38:42;;;;;;;19.77;8.23;;;;;;;;;;6154105;28;20019;-86
2022/08/26 02:41:43;;;;;;;18.87;9.13;;;;;;;;;;6154102;28;20721;-86
2022/08/26 02:44:43;;;;;;;13.47;8.37;;;;;;;;;;6155134;28;20109;-86
2022/08/26 02:47:44;;;;;;;15.23;8.23;;;;;;;;;;6150907;28;20026;-86
2022/08/26 02:50:44;;;;;;;15.77;7.50;;;;;;;;;;6168950;28;20018;-86
2022/08/26 02:53:44;;;;;;;21.70;9.60;;;;;;;;;;6171495;28;20014;-86
2022/08/26 02:56:45;;;;;;;16.00;7.67;;;;;;;;;;6154179;28;20516;-86
2022/08/26 02:59:45;;;;;;;13.27;7.70;;;;;;;;;;6154641;28;20667;-86
2022/08/26 03:02:45;;;;;;;21.10;9.83;;;;;;;;;;6154852;28;20025;-86
2022/08/26 03:05:46;;;;;;;19.67;9.00;;;;;;;;;;6163277;28;20019;-86
2022/08/26 03:08:46;;;;;;;17.47;9.07;;;;;;;;;;6169671;28;20415;-86
2022/08/26 03:11:46;;;;;;;21.77;9.33;;;;;;;;;;6154530;28;20023;-86
2022/08/26 03:14:47;;;;;;;19.53;8.63;;;;;;;;;;6149280;28;20046;-86
2022/08/26 03:17:47;;;;;;;14.83;8.60;;;;;;;;;;6169977;28;20037;-86
2022/08/26 03:20:48;;;;;;;14.73;8.40;;;;;;;;;;6153164;28;20088;-85
2022/08/26 03:23:48;;;;;;;15.83;8.93;;;;;;;;;;6171560;28;20108;-86
2022/08/26 03:26:48;;;;;;;15.53;8.40;;;;;;;;;;6168201;28;20089;-86
2022/08/26 03:33:10;;;;;;;11.23;7.32;;;;;;;;;;6167557;28;20034;-86
2022/08/26 03:36:10;;;;;;;15.80;8.15;;;;;;;;;;6170810;28;20109;-86
2022/08/26 03:39:11;;;;;;;14.85;8.45;;;;;;;;;;6154441;28;20441;-86
2022/08/26 03:42:11;;;;;;;14.68;7.63;;;;;;;;;;6168618;28;20463;-86
2022/08/26 03:45:13;;;;;;;13.73;8.00;;;;;;;;;;6153797;28;20065;-86
2022/08/26 03:48:13;;;;;;;13.75;8.00;;;;;;;;;;6152367;28;20102;-86
2022/08/26 03:51:14;;;;;;;16.07;8.20;;;;;;;;;;6166229;28;20378;-86
2022/08/26 03:54:15;;;;;;;16.40;8.52;;;;;;;;;;6152701;28;20027;-86
2022/08/26 03:57:15;;;;;;;15.25;8.15;;;;;;;;;;6165828;28;20122;-86
2022/08/26 04:00:16;;;;;;;14.47;7.50;;;;;;;;;;6164820;28;20027;-86
2022/08/26 04:03:56;;;;;;;20.97;8.03;;;;;;;;;;6161800;28;20547;-86
2022/08/26 04:06:38;;;;;;;13.13;8.13;;;;;;;;;;6157073;28;20050;-86
2022/08/26 04:09:38;;;;;;;13.52;7.45;;;;;;;;;;6174553;28;20372;-86
2022/08/26 04:12:40;;;;;;;14.20;8.38;;;;;;;;;;6172943;28;20062;-86
2022/08/26 04:15:40;;;;;;;19.33;8.97;;;;;;;;;;6173595;28;20054;-86
2022/08/26 04:18:40;;;;;;;12.93;8.13;;;;;;;;;;6175207;28;20026;-86
2022/08/26 04:21:40;;;;;;;13.87;8.47;;;;;;;;;;6157493;28;20054;-86
2022/08/26 04:24:40;;;;;;;14.93;7.27;;;;;;;;;;6175518;28;20042;-86
2022/08/26 04:27:41;;;;;;;16.70;7.77;;;;;;;;;;6175247;28;20027;-86
2022/08/26 04:30:41;;;;;;;19.90;7.83;;;;;;;;;;6153823;28;20019;-86
2022/08/26 04:33:42;;;;;;;18.43;8.20;;;;;;;;;;6171124;28;20113;-86
2022/08/26 04:36:43;;;;;;;22.70;7.95;;;;;;;;;;6170255;28;20027;-86
2022/08/26 04:39:43;;;;;;;19.00;8.63;;;;;;;;;;6156451;28;20033;-86
2022/08/26 04:42:43;;;;;;;15.93;7.40;;;;;;;;;;6175776;28;20034;-86
2022/08/26 04:45:43;;;;;;;16.38;8.30;;;;;;;;;;6157063;28;20027;-86
2022/08/26 04:48:44;;;;;;;14.30;7.77;;;;;;;;;;6174739;28;20026;-86
2022/08/26 04:51:45;;;;;;;13.73;7.50;;;;;;;;;;6175390;28;20128;-86
2022/08/26 04:54:45;;;;;;;19.93;7.10;;;;;;;;;;6175864;28;20355;-86
2022/08/26 04:57:45;;;;;;;14.40;6.50;;;;;;;;;;6174969;28;20048;-86
2022/08/26 05:00:47;;;;;;;14.53;5.67;;;;;;;;;;6154822;28;20371;-86
2022/08/26 05:03:48;;;;;;;13.07;6.30;;;;;;;;;;6172013;28;20025;-86
2022/08/26 05:06:49;;;;;;;10.70;5.13;;;;;;;;;;6152252;28;20015;-86
2022/08/26 05:09:49;;;;;;;8.50;5.73;;;;;;;;;;6162776;28;20027;-86
2022/08/26 05:12:49;;;;;;;12.68;5.15;;;;;;;;;;6153694;28;20078;-86
2022/08/26 05:15:49;;;;;;;13.00;4.97;;;;;;;;;;6164375;28;20106;-86
2022/08/26 05:18:51;;;;;;;10.97;4.80;;;;;;;;;;6168011;28;20505;-86
2022/08/26 05:21:51;;;;;;;9.85;4.20;;;;;;;;;;6158469;28;20035;-86
2022/08/26 05:24:52;;;;;;;15.00;5.13;;;;;;;;;;6154244;28;20026;-86
2022/08/26 05:27:52;;;;;;;13.63;4.90;;;;;;;;;;6152875;28;20387;-86
2022/08/26 05:30:53;;;;;;;10.90;4.70;;;;;;;;;;6143867;28;20022;-86
2022/08/26 05:33:54;;;;;;;16.20;4.67;;;;;;;;;;6155951;28;20042;-86
2022/08/26 05:36:54;;;;;;;16.00;4.72;;;;;;;;;;6156076;28;20509;-86
2022/08/26 05:39:54;;;;;;;13.00;4.65;;;;;;;;;;6174187;28;20143;-86
2022/08/26 05:42:54;;;;;;;15.10;4.33;;;;;;;;;;6173458;28;20039;-86
2022/08/26 05:45:56;;;;;;;19.15;4.53;;;;;;;;;;6169129;28;20046;-87
2022/08/26 05:48:56;;;;;;;19.20;4.78;;;;;;;;;;6144834;28;20435;-86
2022/08/26 05:51:56;;;;;;;;;;;;;;;;;;6154625;28;20042;-86
2022/08/26 05:54:57;;;;;;;16.55;4.80;;;;;;;;;;6174598;28;19917;-85
2022/08/26 05:57:57;;;;;;;;;;;;;;;;;;6156688;28;20029;-86
2022/08/26 06:01:00;;;;;;;19.35;5.35;;;;;;;;;;6172900;28;19909;-86
2022/08/26 06:04:00;;;;;;;11.75;4.68;;;;;;;;;;6155265;28;20110;-86
2022/08/26 06:07:00;;;;;;;18.80;4.60;;;;;;;;;;6149583;28;20019;-86
2022/08/26 06:10:01;;;;;;;12.02;4.50;;;;;;;;;;6167680;28;20023;-86
2022/08/26 06:13:01;;;;;;;11.83;5.40;;;;;;;;;;6147139;28;20033;-86
2022/08/26 06:16:02;;;;;;;10.55;5.22;;;;;;;;;;6162424;28;20023;-86
2022/08/26 06:19:04;;;;;;;11.93;4.47;;;;;;;;;;6148745;28;20055;-86
2022/08/26 06:25:36;;;;;;;12.77;4.47;;;;;;;;;;6161588;28;20030;-86
2022/08/26 06:25:39;;;;;;;13.37;5.23;;;;;;;;;;6160329;28;20471;-86
2022/08/26 06:28:40;;;;;;;18.77;4.97;;;;;;;;;;6156169;28;20262;-86
2022/08/26 06:31:40;;;;;;;16.35;5.07;;;;;;;;;;6143486;28;20065;-86
2022/08/26 06:34:40;;;;;;;11.73;4.17;;;;;;;;;;6154589;28;20491;-86
2022/08/26 06:37:41;;;;;;;13.23;4.27;;;;;;;;;;6171001;28;20029;-86
2022/08/26 06:40:44;;;;;;;11.75;5.05;;;;;;;;;;6165415;28;20484;-86
2022/08/26 06:43:44;;;;;;;15.95;5.07;;;;;;;;;;6152149;28;20080;-86
2022/08/26 06:46:44;;;;;;;15.07;4.70;;;;;;;;;;6165548;28;20045;-86
2022/08/26 06:49:44;;;;;;;17.30;5.90;;;;;;;;;;6152169;28;20033;-86
2022/08/26 06:52:45;;;;;;;18.45;4.65;;;;;;;;;;6153692;28;20055;-86
2022/08/26 06:55:46;;;;;;;11.03;4.73;;;;;;;;;;6151754;28;20489;-86
2022/08/26 06:58:46;;;;;;;13.70;4.90;;;;;;;;;;6156722;28;20122;-86
2022/08/26 07:01:46;;;;;;;13.10;4.82;;;;;;;;;;6157505;28;20073;-86
2022/08/26 07:04:46;;;;;;;14.07;5.40;;;;;;;;;;6166714;28;20018;-86
2022/08/26 07:07:47;;;;;;;11.77;5.23;;;;;;;;;;6139859;28;20659;-86
2022/08/26 07:10:47;;;;;;;17.13;5.40;;;;;;;;;;6158318;28;20014;-86
2022/08/26 07:13:49;;;;;;;8.83;4.40;;;;;;;;;;6145628;28;20154;-86
2022/08/26 07:16:49;;;;;;;14.25;5.03;;;;;;;;;;6170455;28;20025;-86
2022/08/26 07:19:50;;;;;;;14.68;4.43;;;;;;;;;;6170538;28;20058;-86
2022/08/26 07:22:50;;;;;;;18.52;5.18;;;;;;;;;;6151912;28;20035;-86
2022/08/26 07:25:50;;;;;;;9.80;4.63;;;;;;;;;;6153363;28;20050;-86
2022/08/26 07:28:52;;;;;;;20.23;4.90;;;;;;;;;;6153882;28;20258;-86
2022/08/26 07:31:52;;;;;;;17.08;5.38;;;;;;;;;;6169876;28;20107;-86
2022/08/26 07:34:52;;;;;;;19.73;5.87;;;;;;;;;;6169842;28;20023;-86
2022/08/26 07:37:53;;;;;;;17.67;4.82;;;;;;;;;;6171344;28;20022;-86
2022/08/26 07:40:53;;;;;;;20.27;6.00;;;;;;;;;;6173328;28;20026;-86
2022/08/26 07:43:54;;;;;;;22.03;5.13;;;;;;;;;;6145988;28;20374;-86
2022/08/26 07:46:54;;;;;;;23.03;5.47;;;;;;;;;;6153898;28;20069;-86
2022/08/26 07:49:55;;;;;;;15.68;5.05;;;;;;;;;;6167625;28;20022;-85
2022/08/26 07:52:55;;;;;;;17.40;5.50;;;;;;;;;;6154921;28;20434;-86
2022/08/26 07:55:57;;;;;;;22.65;5.55;;;;;;;;;;6169773;28;20015;-85
2022/08/26 07:58:58;;;;;;;14.13;5.57;;;;;;;;;;6153917;28;20023;-85
2022/08/26 08:02:00;;;;;;;18.87;5.00;;;;;;;;;;6170680;28;20022;-85
2022/08/26 08:05:00;;;;;;;15.82;5.68;;;;;;;;;;6167533;28;20062;-85
2022/08/26 08:08:02;;;;;;;14.52;5.07;;;;;;;;;;6169443;28;20352;-86
2022/08/26 08:11:02;;;;;;;18.02;5.63;;;;;;;;;;6170492;28;20078;-85
2022/08/26 08:14:03;;;;;;;18.70;5.17;;;;;;;;;;6152037;28;20019;-85
2022/08/26 08:17:03;;;;;;;16.27;4.93;;;;;;;;;;6171336;28;20018;-85
2022/08/26 08:20:05;;;;;;;16.07;4.67;;;;;;;;;;6167258;28;20042;-85
2022/08/26 08:23:05;;;;;;;17.27;4.57;;;;;;;;;;6164609;28;20547;-85
2022/08/26 08:26:07;;;;;;;9.67;4.53;;;;;;;;;;6170771;28;20043;-84
2022/08/26 08:29:07;;;;;;;18.73;5.97;;;;;;;;;;6152643;28;20034;-85
2022/08/26 08:32:07;;;;;;;10.40;4.00;;;;;;;;;;6170519;28;20027;-85
2022/08/26 08:35:08;;;;;;;17.10;4.40;;;;;;;;;;6170845;28;20069;-85
2022/08/26 08:38:08;;;;;;;14.27;4.43;;;;;;;;;;6162672;28;20027;-85
2022/08/26 08:41:27;;;;;;;15.43;4.77;;;;;;;;;;6138085;28;20062;-85
2022/08/26 08:44:27;;;;;;;13.63;4.13;;;;;;;;;;6156611;28;20034;-85
2022/08/26 08:47:33;;;;;;;13.43;4.60;;;;;;;;;;6165470;28;20015;-85
2022/08/26 08:50:35;;;;;;;10.80;4.13;;;;;;;;;;6150445;28;20538;-85
2022/08/26 08:53:38;;;;;;;8.38;3.78;;;;;;;;;;6149970;28;20101;-85
2022/08/26 08:56:38;;;;;;;13.05;4.45;;;;;;;;;;6174230;28;20030;-85
2022/08/26 08:59:44;;;;;;;12.70;4.67;;;;;;;;;;6173743;28;20027;-84
2022/08/26 09:03:08;;;;;;;12.80;4.80;;;;;;;;;;6174708;28;20486;-84
2022/08/26 09:06:15;;;;;;;12.27;4.43;;;;;;;;;;6173927;28;20097;-84
2022/08/26 09:09:21;;;;;;;12.32;4.22;;;;;;;;;;6171394;28;20019;-84
2022/08/26 09:12:23;;;;;;;13.52;3.90;;;;;;;;;;6154041;28;20058;-84
2022/08/26 09:15:26;;;;;;;12.15;4.32;;;;;;;;;;6162036;28;20019;-84
2022/08/26 09:18:38;;;;;;;14.82;4.85;;;;;;;;;;6172458;28;20029;-84
2022/08/26 09:21:38;;;;;;;13.88;4.40;;;;;;;;;;6173039;28;20851;-84
2022/08/26 09:24:39;;;;;;;11.48;3.50;;;;;;;;;;6170861;28;20019;-84
2022/08/26 09:27:39;;;;;;;10.13;4.72;;;;;;;;;;6147223;28;20024;-84
2022/08/26 09:30:39;;;;;;;15.00;4.80;;;;;;;;;;6165587;28;20011;-84
2022/08/26 09:33:40;;;;;;;14.77;3.83;;;;;;;;;;6143625;28;20015;-84
2022/08/26 09:36:40;;;;;;;16.52;3.85;;;;;;;;;;6173930;28;20482;-84
2022/08/26 09:39:40;;;;;;;11.07;4.15;;;;;;;;;;6157031;28;20019;-84
2022/08/26 09:42:40;;;;;;;12.02;4.47;;;;;;;;;;6174711;28;20110;-84
2022/08/26 09:45:43;;;;;;;15.63;4.27;;;;;;;;;;6166691;28;20117;-84
2022/08/26 09:48:43;;;;;;;11.65;3.70;;;;;;;;;;6171009;28;20013;-84
2022/08/26 09:51:43;;;;;;;15.33;3.60;;;;;;;;;;6172944;28;20018;-84
2022/08/26 09:54:44;;;;;;;18.20;3.57;;;;;;;;;;6173588;28;20382;-84
2022/08/26 09:57:44;;;;;;;12.68;3.45;;;;;;;;;;6155422;28;20070;-84
2022/08/26 10:00:54;;;;;;;14.43;2.90;;;;;;;;;;6174203;28;20018;-84
2022/08/26 10:04:06;;;;;;;12.32;3.15;;;;;;;;;;6171929;28;20027;-84
2022/08/26 10:07:07;;;;;;;19.40;3.33;;;;;;;;;;6170587;28;20764;-84
2022/08/26 10:10:09;;;;;;;15.05;3.80;;;;;;;;;;6169854;28;20024;-84
2022/08/26 10:13:16;;;;;;;10.32;3.38;;;;;;;;;;6174244;28;20485;-84
2022/08/26 10:16:19;;;;;;;9.90;3.20;;;;;;;;;;6162604;28;20038;-84
2022/08/26 10:19:28;;;;;;;5.65;2.90;;;;;;;;;;6163470;28;20482;-84
2022/08/26 10:22:36;;;;;;;10.68;3.25;;;;;;;;;;6170602;28;20495;-84
2022/08/26 10:25:58;;;;;;;8.68;3.80;;;;;;;;;;6150992;28;20098;-84
2022/08/26 10:29:07;;;;;;;11.02;2.97;;;;;;;;;;6153280;28;20015;-84
2022/08/26 10:32:40;;;;;;;12.20;2.85;;;;;;;;;;6154398;28;20030;-84
2022/08/26 10:35:48;;;;;;;12.77;2.70;;;;;;;;;;6103192;28;20035;-84
2022/08/26 10:38:48;;;;;;;14.38;2.85;;;;;;;;;;6158968;28;20390;-84
2022/08/26 10:41:51;;;;;;;8.70;3.10;;;;;;;;;;6163227;28;20019;-84
2022/08/26 10:44:54;;;;;;;8.02;3.08;;;;;;;;;;6156819;28;20022;-84
2022/08/26 10:47:59;;;;;;;11.27;2.92;;;;;;;;;;6165664;28;20023;-84
2022/08/26 10:51:00;;;;;;;16.23;2.92;;;;;;;;;;6149667;28;20015;-84
2022/08/26 10:54:03;;;;;;;17.45;3.75;;;;;;;;;;6150926;28;20074;-84
2022/08/26 10:57:11;;;;;;;16.67;3.08;;;;;;;;;;6150770;28;20015;-84
2022/08/26 11:03:49;;;;;;;8.38;2.70;;;;;;;;;;6167966;28;20677;-84
2022/08/26 11:07:09;;;;;;;12.38;2.38;;;;;;;;;;6167577;28;20091;-84
2022/08/26 11:10:16;;;;;;;12.47;3.03;;;;;;;;;;6167590;28;20034;-84
2022/08/26 11:13:16;;;;;;;14.18;2.30;;;;;;;;;;6170612;28;20434;-84
2022/08/26 11:16:30;;;;;;;10.97;3.00;;;;;;;;;;6170387;28;20014;-84
2022/08/26 11:19:33;;;;;;;14.05;2.97;;;;;;;;;;6169465;28;20409;-84
2022/08/26 11:22:36;;;;;;;11.93;2.20;;;;;;;;;;6171854;28;20057;-84
2022/08/26 11:25:55;;;;;;;9.27;2.63;;;;;;;;;;6171541;28;20011;-84
2022/08/26 11:28:57;;;;;;;9.15;2.90;;;;;;;;;;6149248;28;20026;-84
2022/08/26 11:31:57;;;;;;;8.32;2.80;;;;;;;;;;6167551;28;20010;-84
2022/08/26 11:34:58;;;;;;;11.82;2.63;;;;;;;;;;6151398;28;20011;-84
2022/08/26 11:38:00;;;;;;;7.43;2.30;;;;;;;;;;6153133;28;20014;-84
2022/08/26 11:41:15;;;;;;;6.68;2.40;;;;;;;;;;6170086;28;20541;-84
2022/08/26 11:44:18;;;;;;;9.10;2.67;;;;;;;;;;6171076;28;20037;-84
2022/08/26 11:47:24;;;;;;;9.23;3.03;;;;;;;;;;6171176;28;20402;-84
2022/08/26 11:50:26;;;;;;;9.55;2.13;;;;;;;;;;6171477;28;20093;-84
2022/08/26 11:53:27;;;;;;;15.18;2.97;;;;;;;;;;6170832;28;20034;-84
2022/08/26 11:56:30;;;;;;;10.38;3.00;;;;;;;;;;6154815;28;20023;-84
2022/08/26 11:59:35;;;;;;;13.63;2.65;;;;;;;;;;6168861;28;20474;-84
2022/08/26 12:02:35;;;;;;;6.55;2.35;;;;;;;;;;6146329;28;20019;-84
2022/08/26 12:05:40;;;;;;;6.07;2.40;;;;;;;;;;6150237;28;20046;-84
2022/08/26 12:08:42;;;;;;;10.30;2.63;;;;;;;;;;6165747;28;20027;-84
2022/08/26 12:11:43;;;;;;;9.73;2.10;;;;;;;;;;6165862;28;20019;-84
2022/08/26 12:14:43;;;;;;;6.00;2.42;;;;;;;;;;6154610;28;20038;-84
2022/08/26 12:17:44;;;;;;;5.95;2.20;;;;;;;;;;6153967;28;20019;-83
2022/08/26 12:20:46;;;;;;;9.95;3.22;;;;;;;;;;6171555;28;20523;-83
2022/08/26 12:23:48;;;;;;;10.90;2.92;;;;;;;;;;6171646;28;20027;-84
2022/08/26 12:26:48;;;;;;;9.35;2.55;;;;;;;;;;6171817;28;20727;-84
2022/08/26 12:30:19;;;;;;;10.02;2.70;;;;;;;;;;6157078;28;20018;-83
2022/08/26 12:33:19;;;;;;;7.03;2.13;;;;;;;;;;6143086;28;20461;-83
2022/08/26 12:36:21;;;;;;;9.00;3.13;;;;;;;;;;6175446;28;20025;-83
2022/08/26 12:39:24;;;;;;;11.70;3.53;;;;;;;;;;6176214;28;20026;-83
2022/08/26 12:42:40;;;;;;;11.73;2.53;;;;;;;;;;6168938;28;20449;-83
2022/08/26 12:45:42;;;;;;;9.93;2.63;;;;;;;;;;6171530;28;20023;-83
2022/08/26 12:48:46;;;;;;;13.32;3.33;;;;;;;;;;6172232;28;20506;-84
2022/08/26 12:51:48;;;;;;;7.35;2.22;;;;;;;;;;6174452;28;20019;-84
2022/08/26 12:54:58;;;;;;;13.60;3.05;;;;;;;;;;6156008;28;20102;-84
2022/08/26 12:58:16;;;;;;;13.95;3.53;;;;;;;;;;6152274;28;20018;-83
2022/08/26 13:01:23;;;;;;;8.75;3.00;;;;;;;;;;6163315;28;20074;-83
2022/08/26 13:04:49;;;;;;;8.73;2.70;;;;;;;;;;6151866;28;20058;-83
2022/08/26 13:08:25;;;;;;;8.32;3.33;;;;;;;;;;6145337;28;20122;-83
2022/08/26 13:11:27;;;;;;;6.30;2.78;;;;;;;;;;6037880;28;20568;-83
2022/08/26 13:14:27;;;;;;;9.52;3.00;;;;;;;;;;6159070;28;20062;-84
2022/08/26 13:17:28;;;;;;;9.93;3.60;;;;;;;;;;6176712;28;20121;-83
2022/08/26 13:20:29;;;;;;;7.93;2.92;;;;;;;;;;6155426;28;20050;-83
2022/08/26 13:23:29;;;;;;;12.32;3.10;;;;;;;;;;6172447;28;20031;-83
2022/08/26 13:26:29;;;;;;;16.15;2.85;;;;;;;;;;6174858;28;20043;-83
2022/08/26 13:29:29;;;;;;;8.57;3.00;;;;;;;;;;6174751;28;20038;-83
2022/08/26 13:32:30;;;;;;;8.93;3.50;;;;;;;;;;6158880;28;20089;-83
2022/08/26 13:35:30;;;;;;;9.57;3.22;;;;;;;;;;6154838;28;20027;-83
2022/08/26 13:38:31;;;;;;;10.30;3.20;;;;;;;;;;6156511;28;20435;-83
2022/08/26 13:41:31;;;;;;;13.10;3.03;;;;;;;;;;6174386;28;20456;-83
2022/08/26 13:44:31;;;;;;;12.70;3.42;;;;;;;;;;6162402;28;20026;-83
2022/08/26 13:47:32;;;;;;;7.97;2.85;;;;;;;;;;6164416;28;20015;-84
2022/08/26 13:50:32;;;;;;;10.90;3.37;;;;;;;;;;6166283;28;20012;-84
2022/08/26 13:53:33;;;;;;;8.00;3.15;;;;;;;;;;6165768;28;20106;-84
2022/08/26 13:56:34;;;;;;;6.00;2.27;;;;;;;;;;6166363;28;20050;-84
2022/08/26 13:59:34;;;;;;;7.28;3.28;;;;;;;;;;6164860;28;20102;-83
2022/08/26 14:02:34;;;;;;;17.23;3.33;;;;;;;;;;6162370;28;20023;-83
2022/08/26 14:05:34;;;;;;;11.07;3.47;;;;;;;;;;6167665;28;20019;-83
2022/08/26 14:08:35;;;;;;;10.90;3.00;;;;;;;;;;6156877;28;20030;-83
2022/08/26 14:11:35;;;;;;;13.52;3.65;;;;;;;;;;6144824;28;20022;-83
2022/08/26 14:14:36;;;;;;;10.07;3.27;;;;;;;;;;6166425;28;20351;-84
2022/08/26 14:17:36;;;;;;;14.40;3.60;;;;;;;;;;6172191;28;20063;-83
2022/08/26 14:20:37;;;;;;;14.43;3.22;;;;;;;;;;6157152;28;20049;-84
2022/08/26 14:23:37;;;;;;;8.57;3.50;;;;;;;;;;6172907;28;20050;-83
2022/08/26 15:24:57;;;;;;;7.07;3.28;;;;;;;;;;6112818;29;20035;-83
2022/08/26 15:27:58;;;;;;;;;;;;;;;;;;6118584;29;20066;-83
2022/08/26 15:30:59;;;;;;;6.23;3.03;;;;;;;;;;6124722;29;19907;-83
2022/08/26 15:34:01;;;;;;;7.78;3.58;;;;;;;;;;6125353;29;20027;-83
2022/08/26 15:37:02;;;;;;;6.00;3.35;;;;;;;;;;6123039;29;20106;-83
2022/08/26 15:40:02;;;;;;;;;;;;;;;;;;6125129;29;20070;-84
2022/08/26 15:43:02;;;;;;;9.23;3.33;;;;;;;;;;6124204;29;19965;-83
2022/08/26 15:46:03;;;;;;;;;;;;;;;;;;6123812;29;20048;-83
2022/08/26 15:49:03;;;;;;;10.05;3.72;;;;;;;;;;6120559;29;19914;-83
2022/08/26 15:52:03;;;;;;;9.43;3.72;;;;;;;;;;6123883;29;20416;-83
2022/08/26 15:55:04;;;;;;;9.67;4.10;;;;;;;;;;6122632;29;20030;-83
2022/08/26 15:58:04;;;;;;;;;;;;;;;;;;6123668;29;20059;-83
2022/08/26 16:01:05;;;;;;;10.70;3.40;;;;;;;;;;6124038;29;19911;-83
2022/08/26 16:04:05;;;;;;;8.88;3.83;;;;;;;;;;6125899;29;20032;-83
2022/08/26 16:07:05;;;;;;;7.90;3.43;;;;;;;;;;6128555;29;20071;-83
2022/08/26 16:10:06;;;;;;;10.60;3.28;;;;;;;;;;6128777;29;20048;-83
2022/08/26 16:13:06;;;;;;;9.00;3.95;;;;;;;;;;6127399;29;20392;-83
2022/08/26 16:16:07;;;;;;;12.70;4.05;;;;;;;;;;6124318;29;20027;-83
2022/08/26 16:19:07;;;;;;;7.40;3.47;;;;;;;;;;6115863;29;20094;-83
2022/08/26 16:22:07;;;;;;;;;;;;;;;;;;6125486;28;20043;-83
2022/08/26 16:25:08;;;;;;;9.80;3.78;;;;;;;;;;6148255;28;20000;-83
2022/08/26 16:28:08;;;;;;;15.67;3.97;;;;;;;;;;6167969;28;20399;-83
2022/08/26 16:31:09;;;;;;;9.40;3.90;;;;;;;;;;6156343;28;20062;-83
2022/08/26 16:34:09;;;;;;;10.15;4.25;;;;;;;;;;6165832;28;20023;-83
2022/08/26 16:37:09;;;;;;;13.70;4.23;;;;;;;;;;6150067;28;20023;-83
2022/08/26 16:40:09;;;;;;;10.83;4.47;;;;;;;;;;6170812;28;20147;-83
2022/08/26 16:43:10;;;;;;;9.03;4.37;;;;;;;;;;6175848;28;20059;-83
2022/08/26 16:46:10;;;;;;;7.88;3.85;;;;;;;;;;6169773;28;20493;-83
2022/08/26 16:49:10;;;;;;;9.47;3.70;;;;;;;;;;6155936;28;20026;-83
2022/08/26 16:52:11;;;;;;;5.78;3.60;;;;;;;;;;6167224;28;20368;-83
2022/08/26 16:55:14;;;;;;;11.97;3.83;;;;;;;;;;6161164;28;20475;-83
2022/08/26 16:58:14;;;;;;;10.55;3.83;;;;;;;;;;6162695;28;20105;-83
2022/08/26 17:01:15;;;;;;;10.65;4.78;;;;;;;;;;6154876;28;20479;-83
2022/08/26 17:04:17;;;;;;;9.35;3.78;;;;;;;;;;6176542;28;20027;-83
2022/08/26 17:07:17;;;;;;;10.05;4.70;;;;;;;;;;6175060;28;20073;-83
2022/08/26 17:10:18;;;;;;;11.70;5.53;;;;;;;;;;6156976;28;20018;-83
2022/08/26 17:13:18;;;;;;;12.70;7.30;;;;;;;;;;6157573;28;20116;-83
2022/08/26 17:16:19;;;;;;;11.53;7.37;;;;;;;;;;6157177;28;20732;-83
2022/08/26 17:19:19;;;;;;;14.63;13.23;;;;;;;;;;6150964;28;20031;-83
2022/08/26 17:22:19;;;;;;;10.50;5.63;;;;;;;;;;6160574;28;20541;-83
2022/08/26 17:25:22;;;;;;;13.60;5.23;;;;;;;;;;6172586;28;20026;-82
2022/08/26 17:28:23;;;;;;;10.52;4.80;;;;;;;;;;6149432;28;20019;-83
2022/08/26 17:31:23;;;;;;;16.97;6.47;;;;;;;;;;6156628;28;20122;-83
2022/08/26 17:34:23;;;;;;;11.52;5.25;;;;;;;;;;6174658;28;20076;-82
2022/08/26 17:37:24;;;;;;;14.03;6.57;;;;;;;;;;6174017;28;20070;-83
2022/08/26 17:40:27;;;;;;;8.10;4.80;;;;;;;;;;6165368;28;20077;-83
2022/08/26 17:43:28;;;;;;;12.27;4.78;;;;;;;;;;6172162;28;20018;-83
2022/08/26 17:46:28;;;;;;;10.45;5.25;;;;;;;;;;6171887;28;20103;-83
2022/08/26 17:49:28;;;;;;;9.50;4.80;;;;;;;;;;6172256;28;20370;-83
2022/08/26 17:52:29;;;;;;;12.30;5.45;;;;;;;;;;6156537;28;20378;-83
2022/08/26 17:55:29;;;;;;;10.25;4.93;;;;;;;;;;6168855;28;20042;-83
2022/08/26 17:58:29;;;;;;;12.30;5.40;;;;;;;;;;6173955;28;20011;-83
2022/08/26 18:01:30;;;;;;;11.77;5.43;;;;;;;;;;6174219;28;20022;-83
2022/08/26 18:04:30;;;;;;;10.73;5.10;;;;;;;;;;6174066;28;20030;-83
2022/08/26 18:07:32;;;;;;;20.47;5.70;;;;;;;;;;6169769;28;20258;-83
2022/08/26 18:10:32;;;;;;;11.98;6.47;;;;;;;;;;6169979;28;20015;-83
2022/08/26 18:13:32;;;;;;;15.40;5.57;;;;;;;;;;6172659;28;20042;-83
2022/08/26 18:16:37;;;;;;;9.80;5.10;;;;;;;;;;6175327;28;20011;-83
2022/08/26 18:19:37;;;;;;;12.80;5.72;;;;;;;;;;6175518;28;20030;-83
2022/08/26 18:22:37;;;;;;;14.52;8.65;;;;;;;;;;6171417;28;20039;-83
2022/08/26 18:25:39;;;;;;;10.60;6.57;;;;;;;;;;6173808;28;20410;-83
2022/08/26 18:28:39;;;;;;;11.00;6.10;;;;;;;;;;6156504;28;20042;-83
2022/08/26 18:31:39;;;;;;;11.67;5.00;;;;;;;;;;6156704;28;20363;-83
2022/08/26 18:34:40;;;;;;;13.80;4.90;;;;;;;;;;6171716;28;20031;-82
2022/08/26 18:37:40;;;;;;;10.13;5.17;;;;;;;;;;6158525;28;20026;-83
2022/08/26 18:40:42;;;;;;;14.67;5.27;;;;;;;;;;6176595;28;20027;-83
2022/08/26 18:43:42;;;;;;;;;;;;;;;;;;6161403;28;20489;-82
2022/08/26 18:46:42;;;;;;;12.68;6.40;;;;;;;;;;6178380;28;20372;-82
2022/08/26 18:49:43;;;;;;;18.03;7.07;;;;;;;;;;6173679;28;20041;-82
2022/08/26 18:52:43;;;;;;;16.83;6.95;;;;;;;;;;6173506;28;20019;-82
2022/08/26 18:55:44;;;;;;;12.90;6.40;;;;;;;;;;6155278;28;20022;-82
2022/08/26 18:58:44;;;;;;;15.52;6.95;;;;;;;;;;6153602;28;20019;-82
2022/08/26 19:01:45;;;;;;;27.37;11.77;;;;;;;;;;6155980;28;20169;-83
2022/08/26 19:04:46;;;;;;;52.70;33.20;;;;;;;;;;6173972;28;20022;-82
2022/08/26 19:07:46;;;;;;;23.03;13.73;;;;;;;;;;6166000;28;20023;-82